sensor_id;sensor_type;location;lat;lon;timestamp;P1;P2;P0
50827;PMS7003;36804;40.218;116.442;2023-02-01T00:02:38;17.00;0.00;0.00
50827;PMS7003;36804;40.218;116.442;2023-02-01T00:07:44;12.00;0.00;0.00
50827;PMS7003;36804;40.218;116.442;2023-02-01T00:12:50;15.75;0.75;0.00
50827;PMS7003;36804;40.218;116.442;2023-02-01T00:17:54;16.25;1.00;0.00
50827;PMS7003;36804;40.218;116.442;2023-02-01T00:22:59;17.50;0.00;0.00
50827;PMS7003;36804;40.218;116.442;2023-02-01T00:28:03;14.75;1.50;1.00
50827;PMS7003;36804;40.218;116.442;2023-02-01T00:33:07;12.00;0.00;0.00
50827;PMS7003;36804;40.218;116.442;2023-02-01T00:38:11;13.00;0.50;0.00
50827;PMS7003;36804;40.218;116.442;2023-02-01T00:43:15;16.00;1.00;0.00
50827;PMS7003;36804;40.218;116.442;2023-02-01T00:48:19;17.50;1.50;0.00
50827;PMS7003;36804;40.218;116.442;2023-02-01T00:53:24;14.00;1.25;1.00
50827;PMS7003;36804;40.218;116.442;2023-02-01T00:58:29;17.75;3.00;1.75
50827;PMS7003;36804;40.218;116.442;2023-02-01T01:03:35;14.75;1.75;1.00
50827;PMS7003;36804;40.218;116.442;2023-02-01T01:08:42;20.00;0.75;0.25
50827;PMS7003;36804;40.218;116.442;2023-02-01T01:13:48;15.25;2.00;1.00
50827;PMS7003;36804;40.218;116.442;2023-02-01T01:18:53;18.50;1.25;1.00
50827;PMS7003;36804;40.218;116.442;2023-02-01T01:23:59;28.50;9.00;5.00
50827;PMS7003;36804;40.218;116.442;2023-02-01T01:29:04;26.25;8.75;4.00
50827;PMS7003;36804;40.218;116.442;2023-02-01T01:34:08;26.50;7.25;4.00
50827;PMS7003;36804;40.218;116.442;2023-02-01T01:39:13;25.00;8.25;4.00
50827;PMS7003;36804;40.218;116.442;2023-02-01T01:49:41;50.00;29.00;14.25
50827;PMS7003;36804;40.218;116.442;2023-02-01T01:54:47;40.75;17.50;9.75
50827;PMS7003;36804;40.218;116.442;2023-02-01T01:59:55;38.75;19.00;11.50
50827;PMS7003;36804;40.218;116.442;2023-02-01T02:05:02;59.25;34.50;18.25
50827;PMS7003;36804;40.218;116.442;2023-02-01T02:10:07;53.75;30.75;16.75
50827;PMS7003;36804;40.218;116.442;2023-02-01T02:15:14;52.75;31.25;14.50
50827;PMS7003;36804;40.218;116.442;2023-02-01T02:25:55;64.00;38.50;21.00
50827;PMS7003;36804;40.218;116.442;2023-02-01T02:47:05;69.75;42.00;22.25
50827;PMS7003;36804;40.218;116.442;2023-02-01T02:52:29;63.00;35.00;20.25
50827;PMS7003;36804;40.218;116.442;2023-02-01T02:57:54;65.50;39.00;21.00
50827;PMS7003;36804;40.218;116.442;2023-02-01T03:03:18;58.50;35.25;19.50
50827;PMS7003;36804;40.218;116.442;2023-02-01T03:08:41;62.25;35.25;20.00
50827;PMS7003;36804;40.218;116.442;2023-02-01T03:19:42;90.75;59.00;35.00
50827;PMS7003;36804;40.218;116.442;2023-02-01T03:24:40;90.25;56.00;32.25
50827;PMS7003;36804;40.218;116.442;2023-02-01T03:34:54;88.25;54.50;32.00
50827;PMS7003;36804;40.218;116.442;2023-02-01T03:40:00;90.00;53.50;33.00
50827;PMS7003;36804;40.218;116.442;2023-02-01T03:50:15;93.25;61.00;36.00
50827;PMS7003;36804;40.218;116.442;2023-02-01T03:55:23;116.67;89.67;53.00
50827;PMS7003;36804;40.218;116.442;2023-02-01T04:00:29;127.67;86.33;53.67
50827;PMS7003;36804;40.218;116.442;2023-02-01T04:05:34;126.67;82.67;45.33
50827;PMS7003;36804;40.218;116.442;2023-02-01T04:10:42;113.75;73.75;43.50
50827;PMS7003;36804;40.218;116.442;2023-02-01T04:15:47;105.25;69.00;40.50
50827;PMS7003;36804;40.218;116.442;2023-02-01T04:20:53;90.50;60.25;36.75
50827;PMS7003;36804;40.218;116.442;2023-02-01T04:26:03;95.75;61.00;36.00
50827;PMS7003;36804;40.218;116.442;2023-02-01T04:31:08;99.50;57.25;35.00
50827;PMS7003;36804;40.218;116.442;2023-02-01T04:36:12;86.75;58.50;34.00
50827;PMS7003;36804;40.218;116.442;2023-02-01T04:41:17;84.00;53.25;33.50
50827;PMS7003;36804;40.218;116.442;2023-02-01T04:46:26;75.25;50.50;31.00
50827;PMS7003;36804;40.218;116.442;2023-02-01T04:51:31;81.75;52.00;31.75
50827;PMS7003;36804;40.218;116.442;2023-02-01T04:56:36;88.50;58.75;34.00
50827;PMS7003;36804;40.218;116.442;2023-02-01T05:01:43;81.00;54.25;32.75
50827;PMS7003;36804;40.218;116.442;2023-02-01T05:06:50;108.00;70.50;41.00
50827;PMS7003;36804;40.218;116.442;2023-02-01T05:11:54;79.75;52.25;32.25
50827;PMS7003;36804;40.218;116.442;2023-02-01T05:17:20;78.25;52.25;32.50
50827;PMS7003;36804;40.218;116.442;2023-02-01T05:22:24;103.00;62.75;37.75
50827;PMS7003;36804;40.218;116.442;2023-02-01T05:27:32;89.50;59.50;33.00
50827;PMS7003;36804;40.218;116.442;2023-02-01T05:32:38;83.00;53.00;33.00
50827;PMS7003;36804;40.218;116.442;2023-02-01T05:37:45;94.25;62.50;36.25
50827;PMS7003;36804;40.218;116.442;2023-02-01T05:42:50;91.00;60.50;35.00
50827;PMS7003;36804;40.218;116.442;2023-02-01T05:47:55;81.00;53.25;32.50
50827;PMS7003;36804;40.218;116.442;2023-02-01T05:53:00;76.00;49.75;31.00
50827;PMS7003;36804;40.218;116.442;2023-02-01T05:58:05;83.25;49.75;31.00
50827;PMS7003;36804;40.218;116.442;2023-02-01T06:03:09;75.25;48.75;31.00
50827;PMS7003;36804;40.218;116.442;2023-02-01T06:08:17;72.75;48.25;30.00
50827;PMS7003;36804;40.218;116.442;2023-02-01T06:13:21;72.50;49.50;31.00
50827;PMS7003;36804;40.218;116.442;2023-02-01T06:18:26;72.25;48.75;29.00
50827;PMS7003;36804;40.218;116.442;2023-02-01T06:23:31;78.00;47.75;30.00
50827;PMS7003;36804;40.218;116.442;2023-02-01T06:28:35;78.00;47.25;29.00
50827;PMS7003;36804;40.218;116.442;2023-02-01T06:33:40;69.00;46.00;29.25
50827;PMS7003;36804;40.218;116.442;2023-02-01T06:38:45;70.50;45.50;28.00
50827;PMS7003;36804;40.218;116.442;2023-02-01T06:43:50;66.75;44.75;26.75
50827;PMS7003;36804;40.218;116.442;2023-02-01T06:48:55;66.25;42.00;25.50
50827;PMS7003;36804;40.218;116.442;2023-02-01T06:54:00;90.75;58.75;33.75
50827;PMS7003;36804;40.218;116.442;2023-02-01T06:59:05;251.00;147.00;72.75
50827;PMS7003;36804;40.218;116.442;2023-02-01T07:04:10;124.75;69.50;36.50
50827;PMS7003;36804;40.218;116.442;2023-02-01T07:09:15;109.00;68.00;36.00
50827;PMS7003;36804;40.218;116.442;2023-02-01T07:14:20;99.75;64.25;35.50
50827;PMS7003;36804;40.218;116.442;2023-02-01T07:19:24;86.75;57.50;31.50
50827;PMS7003;36804;40.218;116.442;2023-02-01T07:24:33;85.75;52.50;33.00
50827;PMS7003;36804;40.218;116.442;2023-02-01T07:29:37;85.75;52.50;33.00
50827;PMS7003;36804;40.218;116.442;2023-02-01T07:34:42;114.00;76.50;41.75
50827;PMS7003;36804;40.218;116.442;2023-02-01T07:39:47;118.00;73.00;37.50
50827;PMS7003;36804;40.218;116.442;2023-02-01T07:44:51;98.25;61.50;34.25
50827;PMS7003;36804;40.218;116.442;2023-02-01T07:49:56;92.00;57.75;35.50
50827;PMS7003;36804;40.218;116.442;2023-02-01T07:55:00;106.25;59.00;34.75
50827;PMS7003;36804;40.218;116.442;2023-02-01T08:00:05;117.25;67.25;36.50
50827;PMS7003;36804;40.218;116.442;2023-02-01T08:05:31;109.75;62.50;34.50
50827;PMS7003;36804;40.218;116.442;2023-02-01T08:10:36;91.50;58.50;35.25
50827;PMS7003;36804;40.218;116.442;2023-02-01T08:15:41;92.75;57.50;33.50
50827;PMS7003;36804;40.218;116.442;2023-02-01T08:20:45;83.50;54.50;33.75
50827;PMS7003;36804;40.218;116.442;2023-02-01T08:25:51;87.00;56.25;32.25
50827;PMS7003;36804;40.218;116.442;2023-02-01T08:30:57;88.00;55.25;30.75
50827;PMS7003;36804;40.218;116.442;2023-02-01T08:36:04;92.75;53.50;31.25
50827;PMS7003;36804;40.218;116.442;2023-02-01T08:41:10;85.00;52.50;29.00
50827;PMS7003;36804;40.218;116.442;2023-02-01T08:46:16;72.25;47.75;29.50
50827;PMS7003;36804;40.218;116.442;2023-02-01T08:51:21;78.00;50.50;30.50
50827;PMS7003;36804;40.218;116.442;2023-02-01T08:56:26;77.75;50.50;29.75
50827;PMS7003;36804;40.218;116.442;2023-02-01T09:01:31;74.75;46.00;26.75
50827;PMS7003;36804;40.218;116.442;2023-02-01T09:06:39;70.50;44.75;26.75
50827;PMS7003;36804;40.218;116.442;2023-02-01T09:11:45;72.00;43.50;26.50
50827;PMS7003;36804;40.218;116.442;2023-02-01T09:16:49;67.25;46.75;25.00
50827;PMS7003;36804;40.218;116.442;2023-02-01T09:21:56;66.00;40.50;23.00
50827;PMS7003;36804;40.218;116.442;2023-02-01T09:27:01;73.50;46.00;27.00
50827;PMS7003;36804;40.218;116.442;2023-02-01T09:32:06;66.50;41.50;23.00
50827;PMS7003;36804;40.218;116.442;2023-02-01T09:37:11;68.75;40.75;23.00
50827;PMS7003;36804;40.218;116.442;2023-02-01T09:47:21;75.25;51.50;32.50
50827;PMS7003;36804;40.218;116.442;2023-02-01T09:52:45;77.75;51.00;30.50
50827;PMS7003;36804;40.218;116.442;2023-02-01T10:02:59;82.75;54.50;32.50
50827;PMS7003;36804;40.218;116.442;2023-02-01T10:08:11;95.50;64.75;37.50
50827;PMS7003;36804;40.218;116.442;2023-02-01T10:13:29;88.50;61.50;34.50
50827;PMS7003;36804;40.218;116.442;2023-02-01T10:29:14;73.75;49.75;31.00
50827;PMS7003;36804;40.218;116.442;2023-02-01T10:34:40;78.00;49.75;31.00
50827;PMS7003;36804;40.218;116.442;2023-02-01T10:39:44;74.25;48.00;30.00
50827;PMS7003;36804;40.218;116.442;2023-02-01T10:44:50;72.25;49.25;29.75
50827;PMS7003;36804;40.218;116.442;2023-02-01T11:00:23;69.75;44.00;27.25
50827;PMS7003;36804;40.218;116.442;2023-02-01T11:05:29;66.75;39.50;24.25
50827;PMS7003;36804;40.218;116.442;2023-02-01T11:10:47;60.50;41.25;25.50
50827;PMS7003;36804;40.218;116.442;2023-02-01T11:16:02;65.00;42.25;25.50
50827;PMS7003;36804;40.218;116.442;2023-02-01T11:21:08;61.50;39.00;23.25
50827;PMS7003;36804;40.218;116.442;2023-02-01T11:26:24;58.00;35.50;22.50
50827;PMS7003;36804;40.218;116.442;2023-02-01T11:31:29;57.00;36.75;22.50
50827;PMS7003;36804;40.218;116.442;2023-02-01T11:36:37;61.00;39.00;22.25
50827;PMS7003;36804;40.218;116.442;2023-02-01T12:19:04;50.75;31.50;17.50
50827;PMS7003;36804;40.218;116.442;2023-02-01T12:45:09;50.50;28.75;15.50
50827;PMS7003;36804;40.218;116.442;2023-02-01T12:50:31;48.50;27.50;16.75
50827;PMS7003;36804;40.218;116.442;2023-02-01T12:55:42;49.75;27.75;15.00
50827;PMS7003;36804;40.218;116.442;2023-02-01T13:01:00;46.50;24.50;14.00
50827;PMS7003;36804;40.218;116.442;2023-02-01T13:06:10;49.50;27.25;14.50
50827;PMS7003;36804;40.218;116.442;2023-02-01T13:16:31;51.25;30.00;15.50
50827;PMS7003;36804;40.218;116.442;2023-02-01T13:21:51;39.25;21.50;12.50
50827;PMS7003;36804;40.218;116.442;2023-02-01T13:27:00;46.75;23.00;12.25
50827;PMS7003;36804;40.218;116.442;2023-02-01T13:32:12;36.50;17.50;10.25
50827;PMS7003;36804;40.218;116.442;2023-02-01T13:37:42;35.75;18.50;11.50
50827;PMS7003;36804;40.218;116.442;2023-02-01T13:42:55;44.50;21.75;13.00
50827;PMS7003;36804;40.218;116.442;2023-02-01T13:48:01;39.00;22.00;10.75
50827;PMS7003;36804;40.218;116.442;2023-02-01T13:58:31;39.00;17.00;8.75
50827;PMS7003;36804;40.218;116.442;2023-02-01T14:03:43;35.75;15.75;9.50
50827;PMS7003;36804;40.218;116.442;2023-02-01T14:09:09;41.50;18.50;11.00
50827;PMS7003;36804;40.218;116.442;2023-02-01T14:19:23;33.00;16.25;9.00
50827;PMS7003;36804;40.218;116.442;2023-02-01T14:24:35;38.00;20.50;10.50
50827;PMS7003;36804;40.218;116.442;2023-02-01T14:29:43;33.50;13.50;8.25
50827;PMS7003;36804;40.218;116.442;2023-02-01T14:34:50;35.25;17.00;9.50
50827;PMS7003;36804;40.218;116.442;2023-02-01T14:39:59;37.25;14.75;8.50
50827;PMS7003;36804;40.218;116.442;2023-02-01T15:01:21;36.50;15.50;7.25
50827;PMS7003;36804;40.218;116.442;2023-02-01T15:06:32;36.00;15.00;8.25
50827;PMS7003;36804;40.218;116.442;2023-02-01T15:17:29;32.75;14.75;8.00
50827;PMS7003;36804;40.218;116.442;2023-02-01T15:22:40;31.50;11.75;7.50
50827;PMS7003;36804;40.218;116.442;2023-02-01T15:27:46;29.75;11.50;6.00
50827;PMS7003;36804;40.218;116.442;2023-02-01T15:33:04;27.00;13.00;7.00
50827;PMS7003;36804;40.218;116.442;2023-02-01T15:43:25;35.50;11.00;7.00
50827;PMS7003;36804;40.218;116.442;2023-02-01T15:48:40;28.75;11.50;6.50
50827;PMS7003;36804;40.218;116.442;2023-02-01T15:53:48;32.75;14.75;8.25
50827;PMS7003;36804;40.218;116.442;2023-02-01T15:58:55;31.00;12.25;7.00
50827;PMS7003;36804;40.218;116.442;2023-02-01T16:09:35;33.00;14.50;8.00
50827;PMS7003;36804;40.218;116.442;2023-02-01T16:14:40;32.00;9.75;5.00
50827;PMS7003;36804;40.218;116.442;2023-02-01T16:19:45;36.50;12.50;7.50
50827;PMS7003;36804;40.218;116.442;2023-02-01T16:24:51;33.50;11.00;6.00
50827;PMS7003;36804;40.218;116.442;2023-02-01T16:29:56;27.50;10.25;5.75
50827;PMS7003;36804;40.218;116.442;2023-02-01T16:35:01;28.25;11.75;5.25
50827;PMS7003;36804;40.218;116.442;2023-02-01T16:40:12;32.75;12.25;5.50
50827;PMS7003;36804;40.218;116.442;2023-02-01T16:45:17;25.50;9.75;5.00
50827;PMS7003;36804;40.218;116.442;2023-02-01T16:50:23;24.75;9.00;5.75
50827;PMS7003;36804;40.218;116.442;2023-02-01T16:55:29;25.25;9.00;5.00
50827;PMS7003;36804;40.218;116.442;2023-02-01T17:00:34;21.50;6.50;4.25
50827;PMS7003;36804;40.218;116.442;2023-02-01T17:05:42;21.00;7.75;5.00
50827;PMS7003;36804;40.218;116.442;2023-02-01T17:10:49;22.50;9.50;4.00
50827;PMS7003;36804;40.218;116.442;2023-02-01T17:15:56;29.25;7.00;4.50
50827;PMS7003;36804;40.218;116.442;2023-02-01T17:21:03;22.25;8.25;5.25
50827;PMS7003;36804;40.218;116.442;2023-02-01T17:26:09;23.50;9.75;4.50
50827;PMS7003;36804;40.218;116.442;2023-02-01T17:31:14;21.50;8.50;4.00
50827;PMS7003;36804;40.218;116.442;2023-02-01T17:36:19;25.00;9.00;4.00
50827;PMS7003;36804;40.218;116.442;2023-02-01T17:41:24;20.75;6.75;3.00
50827;PMS7003;36804;40.218;116.442;2023-02-01T17:46:29;22.00;7.25;4.00
50827;PMS7003;36804;40.218;116.442;2023-02-01T17:51:35;24.00;6.75;3.00
50827;PMS7003;36804;40.218;116.442;2023-02-01T17:56:40;18.25;5.75;3.75
50827;PMS7003;36804;40.218;116.442;2023-02-01T18:01:45;32.00;8.00;4.00
50827;PMS7003;36804;40.218;116.442;2023-02-01T18:06:50;21.00;6.75;3.75
50827;PMS7003;36804;40.218;116.442;2023-02-01T18:11:54;23.00;7.25;3.75
50827;PMS7003;36804;40.218;116.442;2023-02-01T18:16:59;24.00;8.00;4.00
50827;PMS7003;36804;40.218;116.442;2023-02-01T18:22:04;19.00;5.50;2.75
50827;PMS7003;36804;40.218;116.442;2023-02-01T18:27:09;23.25;6.25;3.00
50827;PMS7003;36804;40.218;116.442;2023-02-01T18:32:14;20.25;6.00;3.00
50827;PMS7003;36804;40.218;116.442;2023-02-01T18:37:19;20.25;6.00;3.75
50827;PMS7003;36804;40.218;116.442;2023-02-01T18:42:24;22.75;6.75;4.25
50827;PMS7003;36804;40.218;116.442;2023-02-01T18:47:28;23.50;9.25;4.75
50827;PMS7003;36804;40.218;116.442;2023-02-01T18:52:32;20.50;6.00;3.25
50827;PMS7003;36804;40.218;116.442;2023-02-01T18:57:38;22.75;5.75;3.25
50827;PMS7003;36804;40.218;116.442;2023-02-01T19:02:43;22.00;6.50;3.75
50827;PMS7003;36804;40.218;116.442;2023-02-01T19:07:48;21.00;5.50;2.50
50827;PMS7003;36804;40.218;116.442;2023-02-01T19:12:52;19.75;5.00;3.50
50827;PMS7003;36804;40.218;116.442;2023-02-01T19:18:01;22.25;8.00;2.50
50827;PMS7003;36804;40.218;116.442;2023-02-01T19:23:06;19.25;4.50;3.25
50827;PMS7003;36804;40.218;116.442;2023-02-01T19:28:11;17.75;4.75;2.00
50827;PMS7003;36804;40.218;116.442;2023-02-01T19:33:16;25.50;7.00;3.00
50827;PMS7003;36804;40.218;116.442;2023-02-01T19:38:20;19.75;6.75;3.75
50827;PMS7003;36804;40.218;116.442;2023-02-01T19:43:25;20.00;6.00;3.50
50827;PMS7003;36804;40.218;116.442;2023-02-01T19:48:29;22.75;6.75;2.75
50827;PMS7003;36804;40.218;116.442;2023-02-01T19:53:34;22.00;4.50;2.00
50827;PMS7003;36804;40.218;116.442;2023-02-01T19:58:39;19.50;6.25;3.00
50827;PMS7003;36804;40.218;116.442;2023-02-01T20:03:44;19.50;5.25;3.00
50827;PMS7003;36804;40.218;116.442;2023-02-01T20:08:48;22.00;4.25;2.50
50827;PMS7003;36804;40.218;116.442;2023-02-01T20:13:53;20.00;6.00;2.00
50827;PMS7003;36804;40.218;116.442;2023-02-01T20:18:58;19.00;4.00;2.00
50827;PMS7003;36804;40.218;116.442;2023-02-01T20:24:03;24.00;5.00;2.25
50827;PMS7003;36804;40.218;116.442;2023-02-01T20:29:08;18.75;4.00;2.00
50827;PMS7003;36804;40.218;116.442;2023-02-01T20:34:13;16.50;3.25;1.00
50827;PMS7003;36804;40.218;116.442;2023-02-01T20:39:18;19.25;4.25;2.00
50827;PMS7003;36804;40.218;116.442;2023-02-01T20:44:23;20.75;6.25;2.75
50827;PMS7003;36804;40.218;116.442;2023-02-01T20:49:27;16.75;3.75;2.00
50827;PMS7003;36804;40.218;116.442;2023-02-01T20:54:31;19.50;3.75;1.50
50827;PMS7003;36804;40.218;116.442;2023-02-01T20:59:36;20.00;3.00;1.75
50827;PMS7003;36804;40.218;116.442;2023-02-01T21:04:41;18.75;5.75;2.00
50827;PMS7003;36804;40.218;116.442;2023-02-01T21:09:45;15.75;3.00;2.00
50827;PMS7003;36804;40.218;116.442;2023-02-01T21:14:49;19.50;3.75;2.00
50827;PMS7003;36804;40.218;116.442;2023-02-01T21:19:54;22.75;4.25;2.00
50827;PMS7003;36804;40.218;116.442;2023-02-01T21:24:58;16.50;3.50;1.00
50827;PMS7003;36804;40.218;116.442;2023-02-01T21:30:04;17.75;3.75;1.00
50827;PMS7003;36804;40.218;116.442;2023-02-01T21:35:08;20.75;5.00;2.00
50827;PMS7003;36804;40.218;116.442;2023-02-01T21:40:13;17.25;4.50;2.00
50827;PMS7003;36804;40.218;116.442;2023-02-01T21:45:17;16.75;2.75;1.75
50827;PMS7003;36804;40.218;116.442;2023-02-01T21:50:22;16.50;2.25;1.75
50827;PMS7003;36804;40.218;116.442;2023-02-01T21:55:26;16.25;2.00;1.00
50827;PMS7003;36804;40.218;116.442;2023-02-01T22:00:30;17.25;2.75;1.00
50827;PMS7003;36804;40.218;116.442;2023-02-01T22:05:35;18.50;2.00;1.00
50827;PMS7003;36804;40.218;116.442;2023-02-01T22:10:39;18.75;3.00;1.50
50827;PMS7003;36804;40.218;116.442;2023-02-01T22:15:44;15.00;2.00;1.00
50827;PMS7003;36804;40.218;116.442;2023-02-01T22:20:48;18.00;4.00;2.00
50827;PMS7003;36804;40.218;116.442;2023-02-01T22:25:59;18.75;3.00;1.75
50827;PMS7003;36804;40.218;116.442;2023-02-01T22:31:04;16.25;3.50;1.50
50827;PMS7003;36804;40.218;116.442;2023-02-01T22:36:09;15.75;3.00;1.00
50827;PMS7003;36804;40.218;116.442;2023-02-01T22:41:13;19.75;3.25;1.00
50827;PMS7003;36804;40.218;116.442;2023-02-01T22:46:20;19.00;3.75;1.50
50827;PMS7003;36804;40.218;116.442;2023-02-01T22:51:29;18.25;3.75;1.50
50827;PMS7003;36804;40.218;116.442;2023-02-01T22:56:34;15.50;2.00;0.75
50827;PMS7003;36804;40.218;116.442;2023-02-01T23:01:39;20.00;3.00;1.00
50827;PMS7003;36804;40.218;116.442;2023-02-01T23:06:43;17.25;4.00;2.00
50827;PMS7003;36804;40.218;116.442;2023-02-01T23:11:48;18.50;3.75;2.50
50827;PMS7003;36804;40.218;116.442;2023-02-01T23:16:52;17.75;3.50;1.75
50827;PMS7003;36804;40.218;116.442;2023-02-01T23:21:56;18.25;2.75;1.75
50827;PMS7003;36804;40.218;116.442;2023-02-01T23:27:01;17.25;3.25;1.00
50827;PMS7003;36804;40.218;116.442;2023-02-01T23:32:05;19.00;2.25;1.50
50827;PMS7003;36804;40.218;116.442;2023-02-01T23:37:09;20.00;5.75;2.00
50827;PMS7003;36804;40.218;116.442;2023-02-01T23:42:13;16.75;3.75;1.25
50827;PMS7003;36804;40.218;116.442;2023-02-01T23:47:18;19.00;6.00;1.50
50827;PMS7003;36804;40.218;116.442;2023-02-01T23:52:22;19.50;4.00;1.00
50827;PMS7003;36804;40.218;116.442;2023-02-01T23:57:26;16.50;3.75;1.25
